createdAt,value
2024-02-14T00:01:00.648Z,6.65
2024-02-14T00:03:28.057Z,6.68
2024-02-14T00:05:56.978Z,6.25
2024-02-14T00:08:24.470Z,6.93
2024-02-14T00:10:51.486Z,7.38
2024-02-14T00:13:21.149Z,6.90
2024-02-14T00:15:48.172Z,8.75
2024-02-14T00:18:16.953Z,7.85
2024-02-14T00:20:45.105Z,8.57
2024-02-14T00:23:12.588Z,10.25
2024-02-14T00:25:39.620Z,9.45
2024-02-14T00:28:07.157Z,7.07
2024-02-14T00:30:35.619Z,8.10
2024-02-14T00:33:02.846Z,12.18
2024-02-14T00:35:30.103Z,6.80
2024-02-14T00:37:57.174Z,7.05
2024-02-14T00:40:25.444Z,8.68
2024-02-14T00:42:52.427Z,8.10
2024-02-14T00:45:19.957Z,6.68
2024-02-14T00:47:47.129Z,5.57
2024-02-14T00:50:15.047Z,7.97
2024-02-14T00:52:42.809Z,6.63
2024-02-14T00:55:10.074Z,7.22
2024-02-14T00:57:37.084Z,4.90
2024-02-14T01:00:05.479Z,9.55
2024-02-14T01:02:32.710Z,7.32
2024-02-14T01:05:00.060Z,7.57
2024-02-14T01:07:27.086Z,7.47
2024-02-14T01:09:54.058Z,8.13
2024-02-14T01:12:21.224Z,7.78
2024-02-14T01:14:48.373Z,10.00
2024-02-14T01:17:15.589Z,8.50
2024-02-14T01:19:42.588Z,10.27
2024-02-14T01:22:09.958Z,9.35
2024-02-14T01:24:37.118Z,10.35
2024-02-14T01:27:04.924Z,10.02
2024-02-14T01:29:32.109Z,10.88
2024-02-14T01:31:59.174Z,10.07
2024-02-14T01:34:26.456Z,16.10
2024-02-14T01:36:53.562Z,10.45
2024-02-14T01:39:21.274Z,13.27
2024-02-14T01:41:49.880Z,14.38
2024-02-14T01:44:18.554Z,15.35
2024-02-14T01:46:48.930Z,11.43
2024-02-14T01:49:17.542Z,13.88
2024-02-14T01:51:46.432Z,12.90
2024-02-14T01:54:15.169Z,11.25
2024-02-14T01:56:42.769Z,11.15
2024-02-14T01:59:10.935Z,11.00
2024-02-14T02:01:38.111Z,14.13
2024-02-14T02:04:05.908Z,10.88
2024-02-14T02:06:33.822Z,11.35
2024-02-14T02:09:02.391Z,15.55
2024-02-14T02:11:29.699Z,15.43
2024-02-14T02:13:56.883Z,13.00
2024-02-14T02:16:23.944Z,14.32
2024-02-14T02:18:51.432Z,13.85
2024-02-14T02:21:24.566Z,13.90
2024-02-14T02:23:52.075Z,13.32
2024-02-14T02:26:19.187Z,13.82
2024-02-14T02:28:47.124Z,14.75
2024-02-14T02:31:14.107Z,13.02
2024-02-14T02:33:41.476Z,15.27
2024-02-14T02:36:08.969Z,15.35
2024-02-14T02:38:37.809Z,15.00
2024-02-14T02:41:07.873Z,17.80
2024-02-14T02:43:35.831Z,14.80
2024-02-14T02:46:03.080Z,14.90
2024-02-14T02:48:30.257Z,13.43
2024-02-14T02:50:57.834Z,15.05
2024-02-14T02:53:25.361Z,12.73
2024-02-14T02:55:53.951Z,15.48
2024-02-14T02:58:22.405Z,14.70
2024-02-14T03:00:51.990Z,13.93
2024-02-14T03:03:20.675Z,12.60
2024-02-14T03:05:49.797Z,15.00
2024-02-14T03:08:17.367Z,13.77
2024-02-14T03:10:47.101Z,12.60
2024-02-14T03:13:14.477Z,11.20
2024-02-14T03:15:41.511Z,13.60
2024-02-14T03:18:10.890Z,13.77
2024-02-14T03:20:38.142Z,12.73
2024-02-14T03:23:06.685Z,10.27
2024-02-14T03:25:33.764Z,9.75
2024-02-14T03:28:00.815Z,10.10
2024-02-14T03:30:28.645Z,9.75
2024-02-14T03:32:57.249Z,9.95
2024-02-14T03:35:24.548Z,10.75
2024-02-14T03:37:53.998Z,11.57
2024-02-14T03:40:24.150Z,12.30
2024-02-14T03:42:51.188Z,10.80
2024-02-14T03:45:18.352Z,9.38
2024-02-14T03:47:45.557Z,11.13
2024-02-14T03:50:12.634Z,10.05
2024-02-14T03:52:39.680Z,11.85
2024-02-14T03:55:08.115Z,10.40
2024-02-14T03:57:39.570Z,10.43
2024-02-14T04:00:12.283Z,9.05
2024-02-14T04:02:41.515Z,15.05
2024-02-14T04:05:10.529Z,16.63
2024-02-14T04:07:38.707Z,13.68
2024-02-14T04:10:06.871Z,18.48
2024-02-14T04:12:33.991Z,21.33
2024-02-14T04:15:01.150Z,20.20
2024-02-14T04:17:28.440Z,16.52
2024-02-14T04:19:55.752Z,21.65
2024-02-14T04:22:22.957Z,22.88
2024-02-14T04:24:49.992Z,22.00
2024-02-14T04:27:17.024Z,23.67
2024-02-14T04:29:48.737Z,24.08
2024-02-14T04:32:16.467Z,22.27
2024-02-14T04:34:44.714Z,29.45
2024-02-14T04:37:14.795Z,23.20
2024-02-14T04:39:42.135Z,21.77
2024-02-14T04:42:09.957Z,28.75
2024-02-14T04:44:37.558Z,26.77
2024-02-14T04:47:04.830Z,34.38
2024-02-14T04:49:32.129Z,31.20
2024-02-14T04:51:59.612Z,31.83
2024-02-14T04:54:27.678Z,34.25
2024-02-14T04:56:58.160Z,32.13
2024-02-14T04:59:27.631Z,35.13
2024-02-14T05:01:55.299Z,33.00
2024-02-14T05:04:23.882Z,34.47
2024-02-14T05:06:53.858Z,34.83
2024-02-14T05:09:23.110Z,35.00
2024-02-14T05:11:50.279Z,37.45
2024-02-14T05:14:17.457Z,27.33
2024-02-14T05:16:44.524Z,32.13
2024-02-14T05:19:12.121Z,30.95
2024-02-14T05:21:39.363Z,34.15
2024-02-14T05:24:07.761Z,31.60
2024-02-14T05:26:35.536Z,34.78
2024-02-14T05:29:02.534Z,34.58
2024-02-14T05:31:47.221Z,38.67
2024-02-14T05:34:14.684Z,32.35
2024-02-14T05:36:43.799Z,40.22
2024-02-14T05:39:11.180Z,31.50
2024-02-14T05:41:38.438Z,35.67
2024-02-14T05:44:05.628Z,29.52
2024-02-14T05:46:32.677Z,37.35
2024-02-14T05:49:00.234Z,38.03
2024-02-14T05:51:27.543Z,31.27
2024-02-14T05:53:54.571Z,36.33
2024-02-14T05:56:21.696Z,29.42
2024-02-14T05:58:48.657Z,29.00
2024-02-14T06:01:15.707Z,28.85
2024-02-14T06:03:44.301Z,29.90
2024-02-14T06:06:11.733Z,28.52
2024-02-14T06:08:39.006Z,32.45
2024-02-14T06:11:06.054Z,30.45
2024-02-14T06:13:33.225Z,28.05
2024-02-14T06:16:00.274Z,30.80
2024-02-14T06:18:27.328Z,30.08
2024-02-14T06:20:54.492Z,27.85
2024-02-14T06:23:21.571Z,25.65
2024-02-14T06:25:48.554Z,28.05
2024-02-14T06:28:15.684Z,28.70
2024-02-14T06:30:42.759Z,24.35
2024-02-14T06:33:10.008Z,26.15
2024-02-14T06:35:37.487Z,22.02
2024-02-14T06:38:05.645Z,22.80
2024-02-14T06:40:33.464Z,20.75
2024-02-14T06:43:03.550Z,20.10
2024-02-14T06:45:31.445Z,20.98
2024-02-14T06:47:58.844Z,21.95
2024-02-14T06:50:46.221Z,21.48
2024-02-14T06:53:13.195Z,24.65
2024-02-14T06:55:40.222Z,19.33
2024-02-14T06:58:07.210Z,18.02
2024-02-14T07:00:35.364Z,21.15
2024-02-14T07:03:02.585Z,18.40
2024-02-14T07:05:30.746Z,17.63
2024-02-14T07:07:58.067Z,18.05
2024-02-14T07:10:25.127Z,15.52
2024-02-14T07:12:52.714Z,16.10
2024-02-14T07:15:21.405Z,18.10
2024-02-14T07:17:49.033Z,14.52
2024-02-14T07:20:22.068Z,12.85
2024-02-14T07:22:54.542Z,15.80
2024-02-14T07:25:22.067Z,13.43
2024-02-14T07:27:53.401Z,11.85
2024-02-14T07:30:21.001Z,15.75
2024-02-14T07:32:48.810Z,14.57
2024-02-14T07:35:16.922Z,17.02
2024-02-14T07:37:44.665Z,16.33
2024-02-14T07:40:15.475Z,17.27
2024-02-14T07:42:44.262Z,19.50
2024-02-14T07:45:11.815Z,19.08
2024-02-14T07:47:40.339Z,21.40
2024-02-14T07:50:08.918Z,20.48
2024-02-14T07:52:37.793Z,23.33
2024-02-14T07:55:06.486Z,25.95
2024-02-14T07:57:33.819Z,24.30
2024-02-14T08:00:01.380Z,26.25
2024-02-14T08:02:31.647Z,35.25
2024-02-14T08:04:59.104Z,26.70
2024-02-14T08:07:26.714Z,24.48
2024-02-14T08:09:54.799Z,28.92
2024-02-14T08:12:22.289Z,24.70
2024-02-14T08:14:50.858Z,30.67
2024-02-14T08:17:19.193Z,30.17
2024-02-14T08:19:46.512Z,29.88
2024-02-14T08:22:14.839Z,32.75
2024-02-14T08:24:42.571Z,31.05
2024-02-14T08:27:10.352Z,30.33
2024-02-14T08:29:37.739Z,31.00
2024-02-14T08:32:06.308Z,37.50
2024-02-14T08:34:34.048Z,35.13
2024-02-14T08:37:01.712Z,32.08
2024-02-14T08:39:29.094Z,29.33
2024-02-14T08:41:56.475Z,30.20
2024-02-14T08:44:23.989Z,29.65
2024-02-14T08:46:51.784Z,30.67
2024-02-14T08:49:19.829Z,26.88
2024-02-14T08:51:48.893Z,28.17
2024-02-14T08:54:17.634Z,22.40
2024-02-14T08:56:45.071Z,24.92
2024-02-14T08:59:12.742Z,25.73
2024-02-14T09:01:40.447Z,25.02
2024-02-14T09:04:07.656Z,21.63
2024-02-14T09:06:35.662Z,24.92
2024-02-14T09:09:03.576Z,26.40
2024-02-14T09:11:33.820Z,23.25
2024-02-14T09:14:07.480Z,28.27
2024-02-14T09:16:35.834Z,25.30
2024-02-14T09:19:02.949Z,27.65
2024-02-14T09:21:30.421Z,28.55
2024-02-14T09:23:59.481Z,23.60
2024-02-14T09:26:28.223Z,21.23
2024-02-14T09:29:00.295Z,21.08
2024-02-14T09:31:34.669Z,20.50
2024-02-14T09:34:06.567Z,20.45
2024-02-14T09:36:34.092Z,18.77
2024-02-14T09:39:02.388Z,18.58
2024-02-14T09:41:41.984Z,18.83
2024-02-14T09:44:09.689Z,18.00
2024-02-14T09:46:41.048Z,17.40
2024-02-14T09:49:08.392Z,22.27
2024-02-14T09:51:36.038Z,15.98
2024-02-14T09:54:04.230Z,15.40
2024-02-14T09:56:33.495Z,15.45
2024-02-14T09:59:03.896Z,19.00
2024-02-14T10:01:31.677Z,13.38
2024-02-14T10:03:58.873Z,18.02
2024-02-14T10:06:26.848Z,18.88
2024-02-14T10:09:02.895Z,17.15
2024-02-14T10:11:33.999Z,18.25
2024-02-14T10:14:05.513Z,17.35
2024-02-14T10:16:33.310Z,20.75
2024-02-14T10:19:01.027Z,19.40
2024-02-14T10:21:29.921Z,18.02
2024-02-14T10:24:01.915Z,16.75
2024-02-14T10:26:33.274Z,19.30
2024-02-14T10:29:00.787Z,17.92
2024-02-14T10:31:28.951Z,20.23
2024-02-14T10:33:58.162Z,19.95
2024-02-14T10:36:26.089Z,22.67
2024-02-14T10:38:53.982Z,22.80
2024-02-14T10:41:21.119Z,23.42
2024-02-14T10:43:48.294Z,28.02
2024-02-14T10:46:24.093Z,26.45
2024-02-14T10:49:00.398Z,23.10
2024-02-14T10:51:32.817Z,23.88
2024-02-14T10:54:02.558Z,27.10
2024-02-14T10:56:33.702Z,25.08
2024-02-14T10:59:02.728Z,17.90
2024-02-14T11:01:33.014Z,22.60
2024-02-14T11:04:01.780Z,21.33
2024-02-14T11:06:30.889Z,21.42
2024-02-14T11:09:02.508Z,20.95
2024-02-14T11:11:31.937Z,23.65
2024-02-14T11:13:59.262Z,25.27
2024-02-14T11:16:30.063Z,25.10
2024-02-14T11:19:15.261Z,22.13
2024-02-14T11:21:50.545Z,28.05
2024-02-14T11:24:17.990Z,22.20
2024-02-14T11:26:53.528Z,23.00
2024-02-14T11:32:01.192Z,24.73
2024-02-14T11:34:29.663Z,24.02
2024-02-14T11:36:56.904Z,19.25
2024-02-14T11:39:24.040Z,21.40
2024-02-14T11:41:51.301Z,19.05
2024-02-14T11:44:23.386Z,19.05
2024-02-14T11:46:50.456Z,19.40
2024-02-14T11:49:18.346Z,18.98
2024-02-14T11:51:45.741Z,18.65
2024-02-14T11:54:12.864Z,17.98
2024-02-14T11:56:40.917Z,15.25
2024-02-14T11:59:10.819Z,22.17
2024-02-14T12:01:40.367Z,20.80
2024-02-14T12:04:12.597Z,18.83
2024-02-14T12:06:45.046Z,14.77
2024-02-14T12:09:14.184Z,17.15
2024-02-14T12:11:45.013Z,15.52
2024-02-14T12:14:12.525Z,17.42
2024-02-14T12:16:43.523Z,15.20
2024-02-14T12:19:17.515Z,27.05
2024-02-14T12:21:45.406Z,18.65
2024-02-14T12:24:15.375Z,16.15
2024-02-14T12:26:43.725Z,14.60
2024-02-14T12:29:14.801Z,14.27
2024-02-14T12:31:44.056Z,19.92
2024-02-14T12:34:12.762Z,12.98
2024-02-14T12:36:40.114Z,14.35
2024-02-14T12:39:07.616Z,16.88
2024-02-14T12:41:36.797Z,13.45
2024-02-14T12:44:04.142Z,10.55
2024-02-14T12:46:31.412Z,14.40
2024-02-14T12:48:59.206Z,10.48
2024-02-14T12:51:29.997Z,12.85
2024-02-14T12:53:57.525Z,10.90
2024-02-14T12:56:25.048Z,11.73
2024-02-14T12:58:52.242Z,8.70
2024-02-14T13:01:19.656Z,11.95
2024-02-14T13:03:47.069Z,9.05
2024-02-14T13:06:15.635Z,10.68
2024-02-14T13:08:43.078Z,7.45
2024-02-14T13:11:10.519Z,9.95
2024-02-14T13:13:38.041Z,7.97
2024-02-14T13:16:07.803Z,7.07
2024-02-14T13:18:37.049Z,5.65
2024-02-14T13:21:11.436Z,5.60
2024-02-14T13:23:38.510Z,5.10
2024-02-14T13:26:05.774Z,4.40
2024-02-14T13:28:32.874Z,4.63
2024-02-14T13:31:00.338Z,5.88
2024-02-14T13:33:27.792Z,5.15
2024-02-14T13:35:55.367Z,4.53
2024-02-14T13:38:22.415Z,5.28
2024-02-14T13:40:50.045Z,2.67
2024-02-14T13:43:18.913Z,3.38
2024-02-14T13:45:48.962Z,3.25
2024-02-14T13:48:16.198Z,3.95
2024-02-14T13:50:44.467Z,3.33
2024-02-14T13:53:11.735Z,4.97
2024-02-14T13:55:41.292Z,5.18
2024-02-14T13:58:15.466Z,4.78
2024-02-14T14:00:42.858Z,6.18
2024-02-14T14:03:10.001Z,5.70
2024-02-14T14:05:37.151Z,4.10
2024-02-14T14:08:05.334Z,5.57
2024-02-14T14:10:32.574Z,3.05
2024-02-14T14:12:59.547Z,4.63
2024-02-14T14:15:27.939Z,5.97
2024-02-14T14:17:55.215Z,2.90
2024-02-14T14:20:22.592Z,3.58
2024-02-14T14:22:49.899Z,2.92
2024-02-14T14:25:17.957Z,2.67
2024-02-14T14:27:45.130Z,3.83
2024-02-14T14:30:13.439Z,2.20
2024-02-14T14:32:43.363Z,3.50
2024-02-14T14:35:12.043Z,4.13
2024-02-14T14:37:39.826Z,5.13
2024-02-14T14:40:09.928Z,6.47
2024-02-14T14:42:38.284Z,5.70
2024-02-14T14:45:06.326Z,8.15
2024-02-14T14:47:33.641Z,10.38
2024-02-14T14:50:00.959Z,8.63
2024-02-14T14:52:28.424Z,6.60
2024-02-14T14:54:55.544Z,9.35
2024-02-14T14:57:24.864Z,8.73
2024-02-14T14:59:54.079Z,10.32
2024-02-14T15:02:21.980Z,7.88
2024-02-14T15:04:49.312Z,10.50
2024-02-14T15:07:16.354Z,9.35
2024-02-14T15:09:44.528Z,10.20
2024-02-14T15:12:11.795Z,9.10
2024-02-14T15:14:39.318Z,10.15
2024-02-14T15:17:06.676Z,14.05
2024-02-14T15:19:34.283Z,10.10
2024-02-14T15:22:04.298Z,11.27
2024-02-14T15:24:31.593Z,12.15
2024-02-14T15:27:03.331Z,12.60
2024-02-14T15:29:48.966Z,11.00
2024-02-14T15:32:36.271Z,11.88
2024-02-14T15:35:05.578Z,13.52
2024-02-14T15:37:33.109Z,12.48
2024-02-14T15:40:00.073Z,12.27
2024-02-14T15:42:27.867Z,13.90
2024-02-14T15:44:55.012Z,13.75
2024-02-14T15:47:22.443Z,14.18
2024-02-14T15:49:49.559Z,16.25
2024-02-14T15:52:18.491Z,14.93
2024-02-14T15:54:46.112Z,14.85
2024-02-14T15:57:13.760Z,14.90
2024-02-14T15:59:42.011Z,16.05
2024-02-14T16:02:09.235Z,12.93
2024-02-14T16:04:36.545Z,13.73
2024-02-14T16:07:04.120Z,12.60
2024-02-14T16:09:31.554Z,12.85
2024-02-14T16:11:58.654Z,12.77
2024-02-14T16:14:28.450Z,12.32
2024-02-14T16:16:57.293Z,12.05
2024-02-14T16:19:24.733Z,12.05
2024-02-14T16:21:59.169Z,11.02
2024-02-14T16:24:34.891Z,12.65
2024-02-14T16:27:04.672Z,12.30
2024-02-14T16:29:39.011Z,12.75
2024-02-14T16:32:09.204Z,12.32
2024-02-14T16:34:36.343Z,12.40
2024-02-14T16:37:04.282Z,13.82
2024-02-14T16:39:40.611Z,12.38
2024-02-14T16:42:10.832Z,10.23
2024-02-14T16:44:39.289Z,10.52
2024-02-14T16:47:06.730Z,11.20
2024-02-14T16:49:34.082Z,11.65
2024-02-14T16:52:01.966Z,10.50
2024-02-14T16:54:29.703Z,10.05
2024-02-14T16:57:06.194Z,13.55
2024-02-14T16:59:38.900Z,13.40
2024-02-14T17:02:09.275Z,12.20
2024-02-14T17:04:37.635Z,11.82
2024-02-14T17:07:05.868Z,12.90
2024-02-14T17:09:33.645Z,10.50
2024-02-14T17:12:00.858Z,12.52
2024-02-14T17:14:27.940Z,16.77
2024-02-14T17:16:57.835Z,14.68
2024-02-14T17:19:25.647Z,15.75
2024-02-14T17:21:52.834Z,11.23
2024-02-14T17:24:20.210Z,11.30
2024-02-14T17:26:47.720Z,12.20
2024-02-14T17:29:14.910Z,11.05
2024-02-14T17:31:42.089Z,13.05
2024-02-14T17:34:10.110Z,10.35
2024-02-14T17:36:37.319Z,9.32
2024-02-14T17:39:06.774Z,10.73
2024-02-14T17:41:34.838Z,10.07
2024-02-14T17:44:06.913Z,9.73
2024-02-14T17:46:35.344Z,8.38
2024-02-14T17:49:03.824Z,11.93
2024-02-14T17:51:32.579Z,11.02
2024-02-14T17:53:59.750Z,14.20
2024-02-14T17:56:26.832Z,12.60
2024-02-14T17:58:53.888Z,15.60
2024-02-14T18:01:21.071Z,15.43
2024-02-14T18:03:48.128Z,15.77
2024-02-14T18:06:15.294Z,19.17
2024-02-14T18:08:42.492Z,19.35
2024-02-14T18:11:09.486Z,20.55
2024-02-14T18:13:36.437Z,17.42
2024-02-14T18:16:03.740Z,19.17
2024-02-14T18:18:34.506Z,23.60
2024-02-14T18:21:02.327Z,21.13
2024-02-14T18:23:29.397Z,26.35
2024-02-14T18:25:56.374Z,27.67
2024-02-14T18:28:23.368Z,23.45
2024-02-14T18:30:50.436Z,25.77
2024-02-14T18:33:17.672Z,29.20
2024-02-14T18:35:45.037Z,26.98
2024-02-14T18:38:12.256Z,22.90
2024-02-14T18:40:40.082Z,27.88
2024-02-14T18:43:07.462Z,32.90
2024-02-14T18:45:34.417Z,30.02
2024-02-14T18:48:01.623Z,31.65
2024-02-14T18:50:28.751Z,34.05
2024-02-14T18:52:56.577Z,33.10
2024-02-14T18:55:23.548Z,31.05
2024-02-14T18:57:50.590Z,38.05
2024-02-14T19:00:18.381Z,35.67
2024-02-14T19:02:45.518Z,32.80
2024-02-14T19:05:12.582Z,37.05
2024-02-14T19:07:40.103Z,37.22
2024-02-14T19:10:07.578Z,38.63
2024-02-14T19:12:34.703Z,36.42
2024-02-14T19:15:07.229Z,37.88
2024-02-14T19:17:35.438Z,43.63
2024-02-14T19:20:09.432Z,39.45
2024-02-14T19:22:36.774Z,38.13
2024-02-14T19:25:04.156Z,39.70
2024-02-14T19:27:31.423Z,38.35
2024-02-14T19:30:00.257Z,34.97
2024-02-14T19:32:27.539Z,38.50
2024-02-14T19:34:54.709Z,36.08
2024-02-14T19:37:21.829Z,38.35
2024-02-14T19:39:48.870Z,34.10
2024-02-14T19:42:16.062Z,33.67
2024-02-14T19:44:43.281Z,34.65
2024-02-14T19:47:10.296Z,30.05
2024-02-14T19:49:37.369Z,36.78
2024-02-14T19:52:05.212Z,33.13
2024-02-14T19:54:33.853Z,30.55
2024-02-14T19:57:00.926Z,35.95
2024-02-14T19:59:28.817Z,31.80
2024-02-14T20:01:56.009Z,32.03
2024-02-14T20:04:23.126Z,31.45
2024-02-14T20:06:51.765Z,35.83
2024-02-14T20:09:18.911Z,36.50
2024-02-14T20:11:46.149Z,35.88
2024-02-14T20:14:13.364Z,37.03
2024-02-14T20:16:40.590Z,42.60
2024-02-14T20:19:09.059Z,37.33
2024-02-14T20:21:36.389Z,34.20
2024-02-14T20:24:05.235Z,29.98
2024-02-14T20:26:35.821Z,33.58
2024-02-14T20:29:03.066Z,33.58
2024-02-14T20:31:32.548Z,34.00
2024-02-14T20:34:01.485Z,31.83
2024-02-14T20:36:29.081Z,40.35
2024-02-14T20:38:57.526Z,32.08
2024-02-14T20:41:25.356Z,30.08
2024-02-14T20:43:52.355Z,35.53
2024-02-14T20:46:19.752Z,33.03
2024-02-14T20:48:47.122Z,33.55
2024-02-14T20:51:14.297Z,35.03
2024-02-14T20:53:41.555Z,34.33
2024-02-14T20:56:08.802Z,32.03
2024-02-14T20:58:51.854Z,31.42
2024-02-14T21:01:24.658Z,30.05
2024-02-14T21:03:54.409Z,33.60
2024-02-14T21:06:21.773Z,35.50
2024-02-14T21:08:49.031Z,30.63
2024-02-14T21:11:16.140Z,27.65
2024-02-14T21:13:43.159Z,29.00
2024-02-14T21:16:10.730Z,30.15
2024-02-14T21:18:37.855Z,27.80
2024-02-14T21:21:05.122Z,29.95
2024-02-14T21:23:32.204Z,32.72
2024-02-14T21:25:59.522Z,29.60
2024-02-14T21:28:26.532Z,33.78
2024-02-14T21:30:54.428Z,31.95
2024-02-14T21:33:23.129Z,30.88
2024-02-14T21:35:51.017Z,27.63
2024-02-14T21:38:18.160Z,32.00
2024-02-14T21:40:45.339Z,30.13
2024-02-14T21:43:13.746Z,29.73
2024-02-14T21:45:40.781Z,36.03
2024-02-14T21:48:08.275Z,33.97
2024-02-14T21:50:35.658Z,34.90
2024-02-14T21:53:02.755Z,34.97
2024-02-14T21:55:29.816Z,26.80
2024-02-14T21:57:56.798Z,30.48
2024-02-14T22:00:23.754Z,33.20
2024-02-14T22:02:52.723Z,33.28
2024-02-14T22:05:21.830Z,33.88
2024-02-14T22:07:48.948Z,29.45
2024-02-14T22:10:16.207Z,24.20
2024-02-14T22:12:43.899Z,36.42
2024-02-14T22:15:11.518Z,34.55
2024-02-14T22:17:39.065Z,28.00
2024-02-14T22:20:07.905Z,29.45
2024-02-14T22:22:38.355Z,33.00
2024-02-14T22:25:07.545Z,27.40
2024-02-14T22:27:35.238Z,28.95
2024-02-14T22:30:02.454Z,27.60
2024-02-14T22:32:29.690Z,24.60
2024-02-14T22:34:56.812Z,27.00
2024-02-14T22:37:23.840Z,22.35
2024-02-14T22:39:50.853Z,26.23
2024-02-14T22:42:17.920Z,26.20
2024-02-14T22:44:45.097Z,30.30
2024-02-14T22:47:12.172Z,25.60
2024-02-14T22:49:39.661Z,21.67
2024-02-14T22:52:07.094Z,17.35
2024-02-14T22:54:34.062Z,20.45
2024-02-14T22:57:01.110Z,21.08
2024-02-14T22:59:28.135Z,23.38
2024-02-14T23:01:55.180Z,22.02
2024-02-14T23:04:24.227Z,20.38
2024-02-14T23:06:51.260Z,21.92
2024-02-14T23:09:18.410Z,22.98
2024-02-14T23:11:45.436Z,26.02
2024-02-14T23:14:14.079Z,24.42
2024-02-14T23:16:41.121Z,20.00
2024-02-14T23:19:08.621Z,20.98
2024-02-14T23:21:35.846Z,18.05
2024-02-14T23:24:02.945Z,21.52
2024-02-14T23:26:30.045Z,18.20
2024-02-14T23:28:57.143Z,17.17
2024-02-14T23:31:24.768Z,20.63
2024-02-14T23:33:52.651Z,18.70
2024-02-14T23:36:19.752Z,21.02
2024-02-14T23:38:47.356Z,15.90
2024-02-14T23:41:14.322Z,15.60
2024-02-14T23:43:41.305Z,17.95
2024-02-14T23:46:08.383Z,28.10
2024-02-14T23:48:35.604Z,19.95
2024-02-14T23:51:03.460Z,20.65
2024-02-14T23:53:30.603Z,22.45
2024-02-14T23:55:58.195Z,24.67
2024-02-14T23:58:29.648Z,30.08
